sensor_id;sensor_type;location;lat;lon;timestamp;P1;durP1;ratioP1;P2;durP2;ratioP2
7195;SDS011;3639;51.308;5.624;2023-09-30T00:00:14;12.37;;;6.10;;
7195;SDS011;3639;51.308;5.624;2023-09-30T00:02:40;13.10;;;7.57;;
7195;SDS011;3639;51.308;5.624;2023-09-30T00:05:06;9.17;;;5.73;;
7195;SDS011;3639;51.308;5.624;2023-09-30T00:07:33;11.90;;;6.13;;
7195;SDS011;3639;51.308;5.624;2023-09-30T00:09:59;12.83;;;6.77;;
7195;SDS011;3639;51.308;5.624;2023-09-30T00:12:25;10.80;;;5.93;;
7195;SDS011;3639;51.308;5.624;2023-09-30T00:14:50;16.40;;;6.53;;
7195;SDS011;3639;51.308;5.624;2023-09-30T00:17:16;14.33;;;6.60;;
7195;SDS011;3639;51.308;5.624;2023-09-30T00:19:41;9.77;;;6.50;;
7195;SDS011;3639;51.308;5.624;2023-09-30T00:22:07;11.47;;;7.93;;
7195;SDS011;3639;51.308;5.624;2023-09-30T00:24:33;12.83;;;7.10;;
7195;SDS011;3639;51.308;5.624;2023-09-30T00:26:59;12.60;;;7.13;;
7195;SDS011;3639;51.308;5.624;2023-09-30T00:29:24;15.00;;;7.87;;
7195;SDS011;3639;51.308;5.624;2023-09-30T00:31:51;11.77;;;7.30;;
7195;SDS011;3639;51.308;5.624;2023-09-30T00:34:17;17.97;;;8.43;;
7195;SDS011;3639;51.308;5.624;2023-09-30T00:36:42;12.70;;;8.23;;
7195;SDS011;3639;51.308;5.624;2023-09-30T00:39:08;12.80;;;8.23;;
7195;SDS011;3639;51.308;5.624;2023-09-30T00:41:34;14.70;;;7.97;;
7195;SDS011;3639;51.308;5.624;2023-09-30T00:44:01;18.20;;;8.87;;
7195;SDS011;3639;51.308;5.624;2023-09-30T00:46:33;16.83;;;9.70;;
7195;SDS011;3639;51.308;5.624;2023-09-30T00:49:02;18.03;;;9.10;;
7195;SDS011;3639;51.308;5.624;2023-09-30T00:51:28;17.10;;;9.43;;
7195;SDS011;3639;51.308;5.624;2023-09-30T00:53:56;12.00;;;7.80;;
7195;SDS011;3639;51.308;5.624;2023-09-30T00:56:25;14.43;;;8.20;;
7195;SDS011;3639;51.308;5.624;2023-09-30T00:58:52;12.63;;;8.30;;
7195;SDS011;3639;51.308;5.624;2023-09-30T01:01:18;12.53;;;7.57;;
7195;SDS011;3639;51.308;5.624;2023-09-30T01:03:45;14.47;;;8.03;;
7195;SDS011;3639;51.308;5.624;2023-09-30T01:06:11;16.03;;;8.67;;
7195;SDS011;3639;51.308;5.624;2023-09-30T01:08:37;14.87;;;8.70;;
7195;SDS011;3639;51.308;5.624;2023-09-30T01:11:03;17.53;;;8.73;;
7195;SDS011;3639;51.308;5.624;2023-09-30T01:13:36;15.90;;;8.37;;
7195;SDS011;3639;51.308;5.624;2023-09-30T01:16:06;14.97;;;8.77;;
7195;SDS011;3639;51.308;5.624;2023-09-30T01:18:35;16.30;;;9.50;;
7195;SDS011;3639;51.308;5.624;2023-09-30T01:21:05;14.77;;;8.67;;
7195;SDS011;3639;51.308;5.624;2023-09-30T01:23:31;12.70;;;8.50;;
7195;SDS011;3639;51.308;5.624;2023-09-30T01:26:09;18.57;;;9.07;;
7195;SDS011;3639;51.308;5.624;2023-09-30T01:28:35;13.93;;;7.67;;
7195;SDS011;3639;51.308;5.624;2023-09-30T01:31:04;16.13;;;8.83;;
7195;SDS011;3639;51.308;5.624;2023-09-30T01:33:30;17.03;;;10.07;;
7195;SDS011;3639;51.308;5.624;2023-09-30T01:35:57;18.17;;;9.37;;
7195;SDS011;3639;51.308;5.624;2023-09-30T01:38:24;17.53;;;9.67;;
7195;SDS011;3639;51.308;5.624;2023-09-30T01:40:50;14.47;;;7.77;;
7195;SDS011;3639;51.308;5.624;2023-09-30T01:43:16;20.83;;;9.20;;
7195;SDS011;3639;51.308;5.624;2023-09-30T01:45:42;16.73;;;9.53;;
7195;SDS011;3639;51.308;5.624;2023-09-30T01:48:09;15.23;;;9.13;;
7195;SDS011;3639;51.308;5.624;2023-09-30T01:50:38;15.00;;;8.70;;
7195;SDS011;3639;51.308;5.624;2023-09-30T01:53:05;15.50;;;9.33;;
7195;SDS011;3639;51.308;5.624;2023-09-30T01:55:31;17.27;;;9.37;;
7195;SDS011;3639;51.308;5.624;2023-09-30T01:57:58;15.13;;;9.90;;
7195;SDS011;3639;51.308;5.624;2023-09-30T02:00:24;21.00;;;10.27;;
7195;SDS011;3639;51.308;5.624;2023-09-30T02:02:49;17.47;;;10.57;;
7195;SDS011;3639;51.308;5.624;2023-09-30T02:05:15;16.37;;;9.57;;
7195;SDS011;3639;51.308;5.624;2023-09-30T02:07:41;22.93;;;9.97;;
7195;SDS011;3639;51.308;5.624;2023-09-30T02:10:06;16.10;;;8.77;;
7195;SDS011;3639;51.308;5.624;2023-09-30T02:12:33;17.90;;;9.90;;
7195;SDS011;3639;51.308;5.624;2023-09-30T02:15:03;17.07;;;10.27;;
7195;SDS011;3639;51.308;5.624;2023-09-30T02:17:29;18.93;;;11.03;;
7195;SDS011;3639;51.308;5.624;2023-09-30T02:19:56;23.43;;;10.63;;
7195;SDS011;3639;51.308;5.624;2023-09-30T02:22:22;18.83;;;10.30;;
7195;SDS011;3639;51.308;5.624;2023-09-30T02:24:49;20.87;;;10.37;;
7195;SDS011;3639;51.308;5.624;2023-09-30T02:27:16;20.53;;;10.70;;
7195;SDS011;3639;51.308;5.624;2023-09-30T02:29:41;18.77;;;9.83;;
7195;SDS011;3639;51.308;5.624;2023-09-30T02:32:07;20.63;;;9.83;;
7195;SDS011;3639;51.308;5.624;2023-09-30T02:34:34;17.53;;;10.30;;
7195;SDS011;3639;51.308;5.624;2023-09-30T02:37:00;17.87;;;10.10;;
7195;SDS011;3639;51.308;5.624;2023-09-30T02:39:27;16.37;;;10.33;;
7195;SDS011;3639;51.308;5.624;2023-09-30T02:41:53;22.53;;;10.13;;
7195;SDS011;3639;51.308;5.624;2023-09-30T02:44:18;18.57;;;10.93;;
7195;SDS011;3639;51.308;5.624;2023-09-30T02:46:44;20.03;;;11.27;;
7195;SDS011;3639;51.308;5.624;2023-09-30T02:49:09;19.63;;;11.63;;
7195;SDS011;3639;51.308;5.624;2023-09-30T02:51:35;18.83;;;10.53;;
7195;SDS011;3639;51.308;5.624;2023-09-30T02:56:28;22.93;;;11.97;;
7195;SDS011;3639;51.308;5.624;2023-09-30T02:58:55;24.07;;;10.83;;
7195;SDS011;3639;51.308;5.624;2023-09-30T03:01:21;21.77;;;11.70;;
7195;SDS011;3639;51.308;5.624;2023-09-30T03:03:47;18.90;;;11.67;;
7195;SDS011;3639;51.308;5.624;2023-09-30T03:06:12;17.83;;;10.80;;
7195;SDS011;3639;51.308;5.624;2023-09-30T03:08:39;20.30;;;11.27;;
7195;SDS011;3639;51.308;5.624;2023-09-30T03:11:06;20.00;;;11.50;;
7195;SDS011;3639;51.308;5.624;2023-09-30T03:13:33;21.73;;;11.47;;
7195;SDS011;3639;51.308;5.624;2023-09-30T03:16:00;21.53;;;12.37;;
7195;SDS011;3639;51.308;5.624;2023-09-30T03:18:28;25.73;;;12.60;;
7195;SDS011;3639;51.308;5.624;2023-09-30T03:21:00;21.10;;;11.87;;
7195;SDS011;3639;51.308;5.624;2023-09-30T03:23:30;19.97;;;11.33;;
7195;SDS011;3639;51.308;5.624;2023-09-30T03:25:56;21.20;;;10.73;;
7195;SDS011;3639;51.308;5.624;2023-09-30T03:28:22;24.63;;;11.93;;
7195;SDS011;3639;51.308;5.624;2023-09-30T03:30:49;20.07;;;10.67;;
7195;SDS011;3639;51.308;5.624;2023-09-30T03:33:14;22.03;;;10.47;;
7195;SDS011;3639;51.308;5.624;2023-09-30T03:35:40;20.87;;;12.17;;
7195;SDS011;3639;51.308;5.624;2023-09-30T03:38:06;21.57;;;11.47;;
7195;SDS011;3639;51.308;5.624;2023-09-30T03:40:33;21.47;;;12.00;;
7195;SDS011;3639;51.308;5.624;2023-09-30T03:42:59;29.63;;;12.90;;
7195;SDS011;3639;51.308;5.624;2023-09-30T03:45:26;26.10;;;12.83;;
7195;SDS011;3639;51.308;5.624;2023-09-30T03:47:52;22.20;;;12.57;;
7195;SDS011;3639;51.308;5.624;2023-09-30T03:50:17;22.17;;;11.80;;
7195;SDS011;3639;51.308;5.624;2023-09-30T03:52:43;22.23;;;11.83;;
7195;SDS011;3639;51.308;5.624;2023-09-30T03:55:10;22.13;;;11.00;;
7195;SDS011;3639;51.308;5.624;2023-09-30T03:57:37;25.03;;;12.80;;
7195;SDS011;3639;51.308;5.624;2023-09-30T04:00:03;24.67;;;12.10;;
7195;SDS011;3639;51.308;5.624;2023-09-30T04:02:32;23.93;;;12.33;;
7195;SDS011;3639;51.308;5.624;2023-09-30T04:04:59;25.30;;;12.57;;
7195;SDS011;3639;51.308;5.624;2023-09-30T04:07:30;23.30;;;12.17;;
7195;SDS011;3639;51.308;5.624;2023-09-30T04:09:56;26.30;;;13.47;;
7195;SDS011;3639;51.308;5.624;2023-09-30T04:12:22;26.53;;;13.33;;
7195;SDS011;3639;51.308;5.624;2023-09-30T04:14:51;23.03;;;12.20;;
7195;SDS011;3639;51.308;5.624;2023-09-30T04:17:17;27.17;;;13.80;;
7195;SDS011;3639;51.308;5.624;2023-09-30T04:19:42;24.83;;;12.97;;
7195;SDS011;3639;51.308;5.624;2023-09-30T04:22:08;24.03;;;12.43;;
7195;SDS011;3639;51.308;5.624;2023-09-30T04:24:34;23.83;;;13.33;;
7195;SDS011;3639;51.308;5.624;2023-09-30T04:26:59;25.20;;;13.10;;
7195;SDS011;3639;51.308;5.624;2023-09-30T04:29:28;27.77;;;13.90;;
7195;SDS011;3639;51.308;5.624;2023-09-30T04:31:54;31.47;;;13.67;;
7195;SDS011;3639;51.308;5.624;2023-09-30T04:34:20;32.80;;;13.90;;
7195;SDS011;3639;51.308;5.624;2023-09-30T04:36:46;25.67;;;14.23;;
7195;SDS011;3639;51.308;5.624;2023-09-30T04:39:12;29.17;;;12.73;;
7195;SDS011;3639;51.308;5.624;2023-09-30T04:41:39;32.43;;;14.30;;
7195;SDS011;3639;51.308;5.624;2023-09-30T04:44:06;27.10;;;14.10;;
7195;SDS011;3639;51.308;5.624;2023-09-30T04:46:34;26.27;;;13.90;;
7195;SDS011;3639;51.308;5.624;2023-09-30T04:49:01;23.37;;;12.33;;
7195;SDS011;3639;51.308;5.624;2023-09-30T04:51:30;31.87;;;14.17;;
7195;SDS011;3639;51.308;5.624;2023-09-30T04:54:00;23.23;;;13.27;;
7195;SDS011;3639;51.308;5.624;2023-09-30T04:56:27;26.53;;;13.77;;
7195;SDS011;3639;51.308;5.624;2023-09-30T04:58:53;26.83;;;13.43;;
7195;SDS011;3639;51.308;5.624;2023-09-30T05:01:19;24.87;;;12.63;;
7195;SDS011;3639;51.308;5.624;2023-09-30T05:03:45;31.87;;;15.37;;
7195;SDS011;3639;51.308;5.624;2023-09-30T05:06:14;27.50;;;14.47;;
7195;SDS011;3639;51.308;5.624;2023-09-30T05:08:40;25.83;;;14.70;;
7195;SDS011;3639;51.308;5.624;2023-09-30T05:11:07;29.83;;;14.63;;
7195;SDS011;3639;51.308;5.624;2023-09-30T05:13:35;28.20;;;13.97;;
7195;SDS011;3639;51.308;5.624;2023-09-30T05:16:01;32.20;;;14.00;;
7195;SDS011;3639;51.308;5.624;2023-09-30T05:18:31;30.70;;;14.93;;
7195;SDS011;3639;51.308;5.624;2023-09-30T05:20:57;29.00;;;14.33;;
7195;SDS011;3639;51.308;5.624;2023-09-30T05:23:22;26.37;;;14.30;;
7195;SDS011;3639;51.308;5.624;2023-09-30T05:25:49;26.23;;;13.73;;
7195;SDS011;3639;51.308;5.624;2023-09-30T05:28:14;32.83;;;15.33;;
7195;SDS011;3639;51.308;5.624;2023-09-30T05:30:40;29.17;;;14.23;;
7195;SDS011;3639;51.308;5.624;2023-09-30T05:33:06;28.00;;;13.80;;
7195;SDS011;3639;51.308;5.624;2023-09-30T05:35:32;26.87;;;13.80;;
7195;SDS011;3639;51.308;5.624;2023-09-30T05:37:57;25.50;;;14.13;;
7195;SDS011;3639;51.308;5.624;2023-09-30T05:40:23;26.97;;;14.23;;
7195;SDS011;3639;51.308;5.624;2023-09-30T05:42:55;27.57;;;13.50;;
7195;SDS011;3639;51.308;5.624;2023-09-30T05:45:25;26.07;;;13.90;;
7195;SDS011;3639;51.308;5.624;2023-09-30T05:47:56;27.03;;;13.67;;
7195;SDS011;3639;51.308;5.624;2023-09-30T05:50:24;29.93;;;14.53;;
7195;SDS011;3639;51.308;5.624;2023-09-30T05:52:53;23.00;;;12.83;;
7195;SDS011;3639;51.308;5.624;2023-09-30T05:55:25;26.37;;;13.97;;
7195;SDS011;3639;51.308;5.624;2023-09-30T05:57:54;29.40;;;13.50;;
7195;SDS011;3639;51.308;5.624;2023-09-30T06:00:20;27.80;;;14.20;;
7195;SDS011;3639;51.308;5.624;2023-09-30T06:02:54;24.77;;;13.87;;
7195;SDS011;3639;51.308;5.624;2023-09-30T06:05:21;22.13;;;13.60;;
7195;SDS011;3639;51.308;5.624;2023-09-30T06:07:47;23.97;;;13.10;;
7195;SDS011;3639;51.308;5.624;2023-09-30T06:10:14;25.07;;;13.10;;
7195;SDS011;3639;51.308;5.624;2023-09-30T06:12:41;29.70;;;14.90;;
7195;SDS011;3639;51.308;5.624;2023-09-30T06:15:08;28.40;;;13.17;;
7195;SDS011;3639;51.308;5.624;2023-09-30T06:17:35;26.57;;;14.17;;
7195;SDS011;3639;51.308;5.624;2023-09-30T06:20:03;27.07;;;12.47;;
7195;SDS011;3639;51.308;5.624;2023-09-30T06:22:35;26.03;;;12.67;;
7195;SDS011;3639;51.308;5.624;2023-09-30T06:25:01;31.50;;;14.17;;
7195;SDS011;3639;51.308;5.624;2023-09-30T06:27:28;30.20;;;14.33;;
7195;SDS011;3639;51.308;5.624;2023-09-30T06:29:57;32.40;;;15.07;;
7195;SDS011;3639;51.308;5.624;2023-09-30T06:32:22;29.77;;;14.40;;
7195;SDS011;3639;51.308;5.624;2023-09-30T06:34:48;28.70;;;14.23;;
7195;SDS011;3639;51.308;5.624;2023-09-30T06:37:14;28.50;;;15.57;;
7195;SDS011;3639;51.308;5.624;2023-09-30T06:39:40;31.07;;;14.60;;
7195;SDS011;3639;51.308;5.624;2023-09-30T06:42:06;30.53;;;14.90;;
7195;SDS011;3639;51.308;5.624;2023-09-30T06:44:32;30.43;;;15.20;;
7195;SDS011;3639;51.308;5.624;2023-09-30T06:46:57;32.40;;;14.90;;
7195;SDS011;3639;51.308;5.624;2023-09-30T06:49:23;28.30;;;14.57;;
7195;SDS011;3639;51.308;5.624;2023-09-30T06:51:49;37.10;;;15.37;;
7195;SDS011;3639;51.308;5.624;2023-09-30T06:54:15;29.97;;;14.63;;
7195;SDS011;3639;51.308;5.624;2023-09-30T06:56:40;27.70;;;14.07;;
7195;SDS011;3639;51.308;5.624;2023-09-30T06:59:06;31.53;;;15.77;;
7195;SDS011;3639;51.308;5.624;2023-09-30T07:01:32;29.37;;;16.43;;
7195;SDS011;3639;51.308;5.624;2023-09-30T07:03:57;33.97;;;15.80;;
7195;SDS011;3639;51.308;5.624;2023-09-30T07:06:23;33.37;;;15.77;;
7195;SDS011;3639;51.308;5.624;2023-09-30T07:08:49;31.47;;;16.43;;
7195;SDS011;3639;51.308;5.624;2023-09-30T07:11:15;33.97;;;16.60;;
7195;SDS011;3639;51.308;5.624;2023-09-30T07:13:41;35.17;;;15.97;;
7195;SDS011;3639;51.308;5.624;2023-09-30T07:16:07;35.17;;;17.60;;
7195;SDS011;3639;51.308;5.624;2023-09-30T07:18:32;28.43;;;14.73;;
7195;SDS011;3639;51.308;5.624;2023-09-30T07:20:58;33.47;;;16.30;;
7195;SDS011;3639;51.308;5.624;2023-09-30T07:23:23;38.30;;;18.17;;
7195;SDS011;3639;51.308;5.624;2023-09-30T07:25:49;32.80;;;16.10;;
7195;SDS011;3639;51.308;5.624;2023-09-30T07:28:16;30.70;;;16.83;;
7195;SDS011;3639;51.308;5.624;2023-09-30T07:30:43;29.70;;;16.57;;
7195;SDS011;3639;51.308;5.624;2023-09-30T07:33:10;32.60;;;15.70;;
7195;SDS011;3639;51.308;5.624;2023-09-30T07:35:36;34.80;;;16.30;;
7195;SDS011;3639;51.308;5.624;2023-09-30T07:38:03;31.37;;;15.37;;
7195;SDS011;3639;51.308;5.624;2023-09-30T07:40:30;28.80;;;15.20;;
7195;SDS011;3639;51.308;5.624;2023-09-30T07:42:56;29.30;;;15.50;;
7195;SDS011;3639;51.308;5.624;2023-09-30T07:45:21;35.00;;;15.87;;
7195;SDS011;3639;51.308;5.624;2023-09-30T07:47:49;31.90;;;16.27;;
7195;SDS011;3639;51.308;5.624;2023-09-30T07:50:16;31.37;;;15.97;;
7195;SDS011;3639;51.308;5.624;2023-09-30T07:52:42;37.30;;;16.03;;
7195;SDS011;3639;51.308;5.624;2023-09-30T07:55:09;24.63;;;13.67;;
7195;SDS011;3639;51.308;5.624;2023-09-30T07:57:35;28.20;;;13.30;;
7195;SDS011;3639;51.308;5.624;2023-09-30T08:00:01;22.67;;;12.67;;
7195;SDS011;3639;51.308;5.624;2023-09-30T08:02:28;27.03;;;13.80;;
7195;SDS011;3639;51.308;5.624;2023-09-30T08:04:58;26.80;;;12.87;;
7195;SDS011;3639;51.308;5.624;2023-09-30T08:07:25;22.60;;;11.90;;
7195;SDS011;3639;51.308;5.624;2023-09-30T08:09:51;26.77;;;13.73;;
7195;SDS011;3639;51.308;5.624;2023-09-30T08:12:18;26.40;;;13.70;;
7195;SDS011;3639;51.308;5.624;2023-09-30T08:14:44;21.63;;;11.97;;
7195;SDS011;3639;51.308;5.624;2023-09-30T08:17:10;21.10;;;11.50;;
7195;SDS011;3639;51.308;5.624;2023-09-30T08:19:36;19.80;;;11.53;;
7195;SDS011;3639;51.308;5.624;2023-09-30T08:22:02;21.17;;;11.80;;
7195;SDS011;3639;51.308;5.624;2023-09-30T08:24:31;22.03;;;11.63;;
7195;SDS011;3639;51.308;5.624;2023-09-30T08:27:01;18.10;;;10.47;;
7195;SDS011;3639;51.308;5.624;2023-09-30T08:29:27;23.00;;;10.43;;
7195;SDS011;3639;51.308;5.624;2023-09-30T08:31:52;24.77;;;10.50;;
7195;SDS011;3639;51.308;5.624;2023-09-30T08:34:21;18.90;;;9.27;;
7195;SDS011;3639;51.308;5.624;2023-09-30T08:36:50;14.97;;;9.70;;
7195;SDS011;3639;51.308;5.624;2023-09-30T08:39:19;16.37;;;9.33;;
7195;SDS011;3639;51.308;5.624;2023-09-30T08:41:45;17.70;;;8.77;;
7195;SDS011;3639;51.308;5.624;2023-09-30T08:44:11;16.30;;;8.17;;
7195;SDS011;3639;51.308;5.624;2023-09-30T08:46:37;17.13;;;9.00;;
7195;SDS011;3639;51.308;5.624;2023-09-30T08:49:05;18.47;;;9.10;;
7195;SDS011;3639;51.308;5.624;2023-09-30T08:51:32;16.63;;;8.33;;
7195;SDS011;3639;51.308;5.624;2023-09-30T08:53:59;17.43;;;9.67;;
7195;SDS011;3639;51.308;5.624;2023-09-30T08:56:27;19.73;;;8.73;;
7195;SDS011;3639;51.308;5.624;2023-09-30T08:59:14;17.40;;;8.97;;
7195;SDS011;3639;51.308;5.624;2023-09-30T09:01:40;16.00;;;8.83;;
7195;SDS011;3639;51.308;5.624;2023-09-30T09:04:07;18.57;;;8.87;;
7195;SDS011;3639;51.308;5.624;2023-09-30T09:06:33;15.90;;;9.20;;
7195;SDS011;3639;51.308;5.624;2023-09-30T09:09:12;19.80;;;10.17;;
7195;SDS011;3639;51.308;5.624;2023-09-30T09:11:47;22.37;;;10.53;;
7195;SDS011;3639;51.308;5.624;2023-09-30T09:14:13;17.60;;;9.03;;
7195;SDS011;3639;51.308;5.624;2023-09-30T09:17:00;16.63;;;8.97;;
7195;SDS011;3639;51.308;5.624;2023-09-30T09:19:25;15.97;;;8.63;;
7195;SDS011;3639;51.308;5.624;2023-09-30T09:24:36;14.70;;;8.27;;
7195;SDS011;3639;51.308;5.624;2023-09-30T09:29:33;14.80;;;9.10;;
7195;SDS011;3639;51.308;5.624;2023-09-30T09:32:11;15.50;;;9.13;;
7195;SDS011;3639;51.308;5.624;2023-09-30T09:34:41;21.40;;;9.27;;
7195;SDS011;3639;51.308;5.624;2023-09-30T09:39:56;17.63;;;9.00;;
7195;SDS011;3639;51.308;5.624;2023-09-30T09:42:26;14.93;;;9.03;;
7195;SDS011;3639;51.308;5.624;2023-09-30T09:44:56;17.07;;;8.70;;
7195;SDS011;3639;51.308;5.624;2023-09-30T09:47:25;12.57;;;8.43;;
7195;SDS011;3639;51.308;5.624;2023-09-30T09:49:51;12.73;;;8.70;;
7195;SDS011;3639;51.308;5.624;2023-09-30T09:52:18;16.30;;;8.20;;
7195;SDS011;3639;51.308;5.624;2023-09-30T09:54:47;15.47;;;8.03;;
7195;SDS011;3639;51.308;5.624;2023-09-30T09:57:14;16.33;;;8.27;;
7195;SDS011;3639;51.308;5.624;2023-09-30T09:59:42;16.37;;;8.43;;
7195;SDS011;3639;51.308;5.624;2023-09-30T10:02:10;13.40;;;7.67;;
7195;SDS011;3639;51.308;5.624;2023-09-30T10:04:40;15.07;;;8.03;;
7195;SDS011;3639;51.308;5.624;2023-09-30T10:07:08;15.63;;;7.50;;
7195;SDS011;3639;51.308;5.624;2023-09-30T10:09:41;13.57;;;7.47;;
7195;SDS011;3639;51.308;5.624;2023-09-30T10:12:11;11.47;;;6.40;;
7195;SDS011;3639;51.308;5.624;2023-09-30T10:14:38;12.33;;;6.37;;
7195;SDS011;3639;51.308;5.624;2023-09-30T10:17:03;12.87;;;5.93;;
7195;SDS011;3639;51.308;5.624;2023-09-30T10:19:30;9.67;;;5.67;;
7195;SDS011;3639;51.308;5.624;2023-09-30T10:24:41;9.53;;;4.00;;
7195;SDS011;3639;51.308;5.624;2023-09-30T10:35:22;8.93;;;4.60;;
7195;SDS011;3639;51.308;5.624;2023-09-30T10:40:49;8.63;;;4.83;;
7195;SDS011;3639;51.308;5.624;2023-09-30T10:43:31;9.43;;;5.37;;
7195;SDS011;3639;51.308;5.624;2023-09-30T10:45:57;8.20;;;5.00;;
7195;SDS011;3639;51.308;5.624;2023-09-30T10:51:13;7.90;;;4.53;;
7195;SDS011;3639;51.308;5.624;2023-09-30T10:53:49;12.80;;;4.63;;
7195;SDS011;3639;51.308;5.624;2023-09-30T10:56:17;9.83;;;5.40;;
7195;SDS011;3639;51.308;5.624;2023-09-30T10:58:49;11.23;;;4.80;;
7195;SDS011;3639;51.308;5.624;2023-09-30T11:01:17;8.47;;;4.50;;
7195;SDS011;3639;51.308;5.624;2023-09-30T11:03:46;8.63;;;4.53;;
7195;SDS011;3639;51.308;5.624;2023-09-30T11:06:16;8.80;;;4.53;;
7195;SDS011;3639;51.308;5.624;2023-09-30T11:08:45;8.53;;;4.70;;
7195;SDS011;3639;51.308;5.624;2023-09-30T11:16:56;8.63;;;5.57;;
7195;SDS011;3639;51.308;5.624;2023-09-30T11:19:23;9.63;;;4.30;;
7195;SDS011;3639;51.308;5.624;2023-09-30T11:21:50;8.93;;;4.80;;
7195;SDS011;3639;51.308;5.624;2023-09-30T11:24:17;8.57;;;4.30;;
7195;SDS011;3639;51.308;5.624;2023-09-30T11:26:44;11.67;;;4.53;;
7195;SDS011;3639;51.308;5.624;2023-09-30T11:29:11;7.43;;;4.00;;
7195;SDS011;3639;51.308;5.624;2023-09-30T11:31:41;5.40;;;3.97;;
7195;SDS011;3639;51.308;5.624;2023-09-30T11:34:09;9.70;;;4.13;;
7195;SDS011;3639;51.308;5.624;2023-09-30T11:37:09;6.47;;;3.93;;
7195;SDS011;3639;51.308;5.624;2023-09-30T11:39:29;8.83;;;5.00;;
7195;SDS011;3639;51.308;5.624;2023-09-30T11:41:56;8.87;;;4.30;;
7195;SDS011;3639;51.308;5.624;2023-09-30T11:44:22;5.40;;;3.20;;
7195;SDS011;3639;51.308;5.624;2023-09-30T11:46:52;6.77;;;2.90;;
7195;SDS011;3639;51.308;5.624;2023-09-30T11:49:28;6.87;;;3.20;;
7195;SDS011;3639;51.308;5.624;2023-09-30T11:52:13;8.13;;;3.40;;
7195;SDS011;3639;51.308;5.624;2023-09-30T11:57:08;8.87;;;4.03;;
7195;SDS011;3639;51.308;5.624;2023-09-30T11:59:35;5.90;;;3.73;;
7195;SDS011;3639;51.308;5.624;2023-09-30T12:02:07;6.03;;;4.50;;
7195;SDS011;3639;51.308;5.624;2023-09-30T12:04:34;7.57;;;4.07;;
7195;SDS011;3639;51.308;5.624;2023-09-30T12:07:01;5.13;;;3.50;;
7195;SDS011;3639;51.308;5.624;2023-09-30T12:09:26;7.27;;;4.10;;
7195;SDS011;3639;51.308;5.624;2023-09-30T12:11:53;8.40;;;4.30;;
7195;SDS011;3639;51.308;5.624;2023-09-30T12:14:22;7.83;;;4.13;;
7195;SDS011;3639;51.308;5.624;2023-09-30T12:16:49;8.73;;;4.27;;
7195;SDS011;3639;51.308;5.624;2023-09-30T12:19:16;13.63;;;5.60;;
7195;SDS011;3639;51.308;5.624;2023-09-30T12:21:45;7.87;;;4.60;;
7195;SDS011;3639;51.308;5.624;2023-09-30T12:24:13;7.23;;;4.63;;
7195;SDS011;3639;51.308;5.624;2023-09-30T12:26:45;9.20;;;4.97;;
7195;SDS011;3639;51.308;5.624;2023-09-30T12:29:15;10.40;;;4.80;;
7195;SDS011;3639;51.308;5.624;2023-09-30T12:31:44;8.27;;;4.70;;
7195;SDS011;3639;51.308;5.624;2023-09-30T12:34:10;9.90;;;4.50;;
7195;SDS011;3639;51.308;5.624;2023-09-30T12:36:36;8.93;;;4.60;;
7195;SDS011;3639;51.308;5.624;2023-09-30T12:39:03;6.83;;;4.17;;
7195;SDS011;3639;51.308;5.624;2023-09-30T12:41:35;7.00;;;4.83;;
7195;SDS011;3639;51.308;5.624;2023-09-30T12:44:05;6.97;;;4.23;;
7195;SDS011;3639;51.308;5.624;2023-09-30T12:46:31;7.93;;;4.43;;
7195;SDS011;3639;51.308;5.624;2023-09-30T12:48:59;9.07;;;4.83;;
7195;SDS011;3639;51.308;5.624;2023-09-30T12:51:28;8.73;;;4.43;;
7195;SDS011;3639;51.308;5.624;2023-09-30T12:53:55;8.50;;;3.73;;
7195;SDS011;3639;51.308;5.624;2023-09-30T12:56:21;7.73;;;4.13;;
7195;SDS011;3639;51.308;5.624;2023-09-30T12:58:47;6.03;;;3.73;;
7195;SDS011;3639;51.308;5.624;2023-09-30T13:01:13;6.90;;;3.70;;
7195;SDS011;3639;51.308;5.624;2023-09-30T13:03:39;7.43;;;3.60;;
7195;SDS011;3639;51.308;5.624;2023-09-30T13:06:04;5.87;;;3.33;;
7195;SDS011;3639;51.308;5.624;2023-09-30T13:08:30;7.53;;;3.83;;
7195;SDS011;3639;51.308;5.624;2023-09-30T13:10:59;7.27;;;4.00;;
7195;SDS011;3639;51.308;5.624;2023-09-30T13:13:27;7.37;;;3.40;;
7195;SDS011;3639;51.308;5.624;2023-09-30T13:15:53;5.50;;;3.30;;
7195;SDS011;3639;51.308;5.624;2023-09-30T13:18:19;6.40;;;3.80;;
7195;SDS011;3639;51.308;5.624;2023-09-30T13:20:44;7.37;;;4.23;;
7195;SDS011;3639;51.308;5.624;2023-09-30T13:23:10;6.43;;;3.73;;
7195;SDS011;3639;51.308;5.624;2023-09-30T13:25:36;8.67;;;3.67;;
7195;SDS011;3639;51.308;5.624;2023-09-30T13:28:01;5.80;;;3.40;;
7195;SDS011;3639;51.308;5.624;2023-09-30T13:30:27;6.70;;;3.80;;
7195;SDS011;3639;51.308;5.624;2023-09-30T13:32:52;7.10;;;3.50;;
7195;SDS011;3639;51.308;5.624;2023-09-30T13:35:18;6.70;;;3.60;;
7195;SDS011;3639;51.308;5.624;2023-09-30T13:37:44;9.10;;;4.57;;
7195;SDS011;3639;51.308;5.624;2023-09-30T13:40:10;5.77;;;3.40;;
7195;SDS011;3639;51.308;5.624;2023-09-30T13:42:38;7.43;;;4.07;;
7195;SDS011;3639;51.308;5.624;2023-09-30T13:45:05;10.73;;;3.90;;
7195;SDS011;3639;51.308;5.624;2023-09-30T13:47:32;7.60;;;3.60;;
7195;SDS011;3639;51.308;5.624;2023-09-30T13:49:58;8.67;;;3.97;;
7195;SDS011;3639;51.308;5.624;2023-09-30T13:52:24;9.23;;;4.17;;
7195;SDS011;3639;51.308;5.624;2023-09-30T13:54:49;9.50;;;4.03;;
7195;SDS011;3639;51.308;5.624;2023-09-30T13:57:16;9.30;;;4.07;;
7195;SDS011;3639;51.308;5.624;2023-09-30T13:59:41;6.33;;;3.50;;
7195;SDS011;3639;51.308;5.624;2023-09-30T14:02:07;5.43;;;3.20;;
7195;SDS011;3639;51.308;5.624;2023-09-30T14:04:33;9.00;;;4.07;;
7195;SDS011;3639;51.308;5.624;2023-09-30T14:07:02;10.30;;;3.70;;
7195;SDS011;3639;51.308;5.624;2023-09-30T14:09:28;8.33;;;4.03;;
7195;SDS011;3639;51.308;5.624;2023-09-30T14:11:54;8.80;;;4.60;;
7195;SDS011;3639;51.308;5.624;2023-09-30T14:14:20;5.73;;;2.87;;
7195;SDS011;3639;51.308;5.624;2023-09-30T14:16:45;6.40;;;3.57;;
7195;SDS011;3639;51.308;5.624;2023-09-30T14:19:12;6.27;;;3.50;;
7195;SDS011;3639;51.308;5.624;2023-09-30T14:21:38;7.13;;;3.50;;
7195;SDS011;3639;51.308;5.624;2023-09-30T14:24:05;6.43;;;3.80;;
7195;SDS011;3639;51.308;5.624;2023-09-30T14:26:31;7.43;;;3.63;;
7195;SDS011;3639;51.308;5.624;2023-09-30T14:28:57;6.43;;;3.60;;
7195;SDS011;3639;51.308;5.624;2023-09-30T14:31:22;9.60;;;3.90;;
7195;SDS011;3639;51.308;5.624;2023-09-30T14:33:48;6.10;;;3.67;;
7195;SDS011;3639;51.308;5.624;2023-09-30T14:36:15;7.40;;;3.60;;
7195;SDS011;3639;51.308;5.624;2023-09-30T14:38:42;8.50;;;3.80;;
7195;SDS011;3639;51.308;5.624;2023-09-30T14:41:08;6.73;;;3.37;;
7195;SDS011;3639;51.308;5.624;2023-09-30T14:43:34;5.37;;;3.03;;
7195;SDS011;3639;51.308;5.624;2023-09-30T14:46:03;7.43;;;3.80;;
7195;SDS011;3639;51.308;5.624;2023-09-30T14:48:33;6.57;;;3.53;;
7195;SDS011;3639;51.308;5.624;2023-09-30T14:50:59;7.23;;;3.77;;
7195;SDS011;3639;51.308;5.624;2023-09-30T14:53:24;6.77;;;3.73;;
7195;SDS011;3639;51.308;5.624;2023-09-30T14:55:50;6.17;;;4.13;;
7195;SDS011;3639;51.308;5.624;2023-09-30T14:58:16;9.23;;;4.33;;
7195;SDS011;3639;51.308;5.624;2023-09-30T15:00:42;6.73;;;3.50;;
7195;SDS011;3639;51.308;5.624;2023-09-30T15:03:09;6.57;;;3.80;;
7195;SDS011;3639;51.308;5.624;2023-09-30T15:05:35;7.07;;;3.50;;
7195;SDS011;3639;51.308;5.624;2023-09-30T15:08:01;6.13;;;3.80;;
7195;SDS011;3639;51.308;5.624;2023-09-30T15:10:27;7.43;;;3.60;;
7195;SDS011;3639;51.308;5.624;2023-09-30T15:12:53;8.93;;;3.77;;
7195;SDS011;3639;51.308;5.624;2023-09-30T15:15:19;7.57;;;3.80;;
7195;SDS011;3639;51.308;5.624;2023-09-30T15:17:45;6.57;;;3.47;;
7195;SDS011;3639;51.308;5.624;2023-09-30T15:20:11;6.03;;;3.57;;
7195;SDS011;3639;51.308;5.624;2023-09-30T15:22:37;6.70;;;4.10;;
7195;SDS011;3639;51.308;5.624;2023-09-30T15:25:02;9.37;;;4.77;;
7195;SDS011;3639;51.308;5.624;2023-09-30T15:27:29;8.30;;;4.27;;
7195;SDS011;3639;51.308;5.624;2023-09-30T15:29:56;8.80;;;4.03;;
7195;SDS011;3639;51.308;5.624;2023-09-30T15:32:23;9.03;;;4.23;;
7195;SDS011;3639;51.308;5.624;2023-09-30T15:34:49;6.53;;;4.00;;